createdAt,value
2018-09-14T00:00:24.656Z,975.07
2018-09-14T00:01:24.652Z,975.10
2018-09-14T00:02:24.642Z,975.05
2018-09-14T00:03:24.643Z,975.02
2018-09-14T00:04:24.635Z,975.03
2018-09-14T00:05:24.636Z,975.06
2018-09-14T00:06:24.623Z,975.04
2018-09-14T00:07:24.618Z,975.05
2018-09-14T00:08:24.607Z,975.04
2018-09-14T00:09:24.600Z,975.06
2018-09-14T00:10:24.597Z,975.03
2018-09-14T00:11:24.594Z,975.03
2018-09-14T00:12:24.583Z,975.04
2018-09-14T00:13:24.584Z,975.03
2018-09-14T00:14:24.570Z,975.01
2018-09-14T00:15:24.569Z,975.05
2018-09-14T00:16:24.559Z,975.03
2018-09-14T00:17:24.553Z,974.98
2018-09-14T00:18:24.549Z,975.01
2018-09-14T00:19:24.547Z,975.02
2018-09-14T00:20:24.540Z,975.04
2018-09-14T00:21:24.534Z,975.00
2018-09-14T00:22:24.527Z,975.05
2018-09-14T00:23:24.516Z,975.06
2018-09-14T00:24:24.519Z,975.09
2018-09-14T00:25:24.505Z,975.08
2018-09-14T00:26:24.501Z,975.00
2018-09-14T00:27:24.497Z,975.03
2018-09-14T00:28:24.490Z,975.04
2018-09-14T00:29:24.488Z,975.02
2018-09-14T00:30:24.476Z,975.01
2018-09-14T00:31:24.475Z,975.00
2018-09-14T00:32:24.465Z,975.00
2018-09-14T00:33:24.459Z,974.99
2018-09-14T00:34:24.454Z,974.98
2018-09-14T00:35:24.446Z,975.01
2018-09-14T00:36:24.445Z,974.98
2018-09-14T00:37:24.445Z,975.04
2018-09-14T00:38:24.434Z,975.03
2018-09-14T00:39:24.429Z,974.96
2018-09-14T00:40:24.416Z,974.98
2018-09-14T00:41:24.408Z,974.97
2018-09-14T00:42:24.408Z,974.94
2018-09-14T00:43:24.406Z,974.95
2018-09-14T00:44:24.395Z,974.94
2018-09-14T00:45:24.389Z,974.98
2018-09-14T00:46:24.379Z,974.95
2018-09-14T00:47:24.380Z,974.93
2018-09-14T00:48:24.371Z,974.90
2018-09-14T00:49:24.362Z,974.93
2018-09-14T00:50:24.357Z,974.92
2018-09-14T00:51:24.351Z,974.89
2018-09-14T00:52:24.345Z,974.88
2018-09-14T00:53:24.337Z,974.88
2018-09-14T00:54:24.333Z,974.89
2018-09-14T00:55:24.330Z,974.89
2018-09-14T00:56:24.328Z,974.89
2018-09-14T00:57:24.318Z,974.88
2018-09-14T00:58:24.327Z,974.89
2018-09-14T00:59:24.308Z,974.92
2018-09-14T01:00:24.300Z,974.90
2018-09-14T01:01:24.308Z,974.89
2018-09-14T01:02:24.289Z,974.94
2018-09-14T01:03:24.284Z,974.92
2018-09-14T01:04:24.276Z,974.87
2018-09-14T01:05:24.273Z,974.93
2018-09-14T01:06:24.259Z,974.92
2018-09-14T01:07:24.254Z,974.95
2018-09-14T01:08:24.257Z,974.91
2018-09-14T01:09:24.240Z,974.90
2018-09-14T01:10:24.242Z,974.92
2018-09-14T01:11:24.231Z,974.90
2018-09-14T01:12:24.226Z,974.92
2018-09-14T01:13:24.217Z,974.91
2018-09-14T01:14:24.216Z,974.91
2018-09-14T01:15:24.215Z,974.98
2018-09-14T01:16:24.206Z,974.91
2018-09-14T01:17:24.241Z,974.92
2018-09-14T01:18:24.192Z,974.97
2018-09-14T01:19:24.179Z,974.97
2018-09-14T01:20:24.175Z,975.00
2018-09-14T01:21:24.179Z,974.99
2018-09-14T01:22:24.168Z,975.01
2018-09-14T01:23:24.156Z,975.01
2018-09-14T01:24:24.152Z,974.97
2018-09-14T01:25:24.145Z,974.96
2018-09-14T01:26:24.137Z,974.97
2018-09-14T01:27:24.129Z,974.99
2018-09-14T01:28:24.125Z,974.99
2018-09-14T01:29:24.115Z,974.98
2018-09-14T01:30:24.110Z,974.97
2018-09-14T01:31:24.103Z,974.95
2018-09-14T01:32:24.102Z,974.96
2018-09-14T01:33:24.092Z,975.00
2018-09-14T01:34:24.089Z,974.99
2018-09-14T01:35:24.079Z,975.00
2018-09-14T01:36:24.078Z,974.99
2018-09-14T01:37:24.066Z,975.02
2018-09-14T01:38:24.058Z,975.00
2018-09-14T01:39:24.058Z,974.97
2018-09-14T01:40:24.053Z,974.98
2018-09-14T01:41:24.041Z,974.96
2018-09-14T01:42:24.034Z,974.97
2018-09-14T01:43:24.028Z,974.95
2018-09-14T01:44:24.027Z,974.92
2018-09-14T01:45:24.016Z,974.93
2018-09-14T01:46:24.010Z,974.93
2018-09-14T01:47:24.007Z,974.92
2018-09-14T01:48:23.998Z,974.94
2018-09-14T01:49:23.997Z,974.93
2018-09-14T01:50:23.992Z,974.91
2018-09-14T01:51:23.976Z,974.91
2018-09-14T01:52:23.975Z,974.93
2018-09-14T01:53:23.962Z,974.95
2018-09-14T01:54:23.956Z,974.90
2018-09-14T01:55:23.950Z,974.88
2018-09-14T01:56:23.951Z,974.87
2018-09-14T01:57:23.942Z,974.88
2018-09-14T01:58:23.932Z,974.88
2018-09-14T01:59:23.924Z,974.89
2018-09-14T02:00:23.917Z,974.90
2018-09-14T02:01:23.915Z,974.86
2018-09-14T02:02:23.905Z,974.85
2018-09-14T02:03:23.984Z,974.84
2018-09-14T02:04:23.896Z,974.81
2018-09-14T02:05:23.882Z,974.85
2018-09-14T02:06:23.882Z,974.82
2018-09-14T02:07:23.877Z,974.74
2018-09-14T02:08:23.869Z,974.80
2018-09-14T02:09:23.858Z,974.83
2018-09-14T02:10:23.852Z,974.82
2018-09-14T02:11:23.846Z,974.81
2018-09-14T02:12:23.840Z,974.86
2018-09-14T02:13:23.830Z,974.82
2018-09-14T02:14:23.829Z,974.86
2018-09-14T02:15:23.822Z,974.84
2018-09-14T02:16:23.815Z,974.83
2018-09-14T02:17:23.802Z,974.81
2018-09-14T02:18:23.800Z,974.86
2018-09-14T02:19:23.790Z,974.86
2018-09-14T02:20:23.789Z,974.85
2018-09-14T02:21:23.782Z,974.84
2018-09-14T02:22:23.777Z,974.88
2018-09-14T02:23:23.768Z,974.87
2018-09-14T02:24:23.757Z,974.83
2018-09-14T02:25:23.765Z,974.85
2018-09-14T02:26:23.743Z,974.84
2018-09-14T02:27:23.744Z,974.85
2018-09-14T02:28:23.731Z,974.83
2018-09-14T02:29:23.729Z,974.84
2018-09-14T02:30:23.723Z,974.87
2018-09-14T02:31:23.712Z,974.85
2018-09-14T02:32:23.705Z,974.83
2018-09-14T02:33:23.700Z,974.83
2018-09-14T02:34:23.697Z,974.84
2018-09-14T02:35:23.686Z,974.84
2018-09-14T02:36:23.686Z,974.82
2018-09-14T02:37:23.681Z,974.81
2018-09-14T02:38:23.675Z,974.82
2018-09-14T02:39:23.660Z,974.81
2018-09-14T02:40:23.665Z,974.81
2018-09-14T02:41:23.650Z,974.83
2018-09-14T02:42:23.646Z,974.82
2018-09-14T02:43:23.642Z,974.82
2018-09-14T02:44:23.630Z,974.84
2018-09-14T02:45:23.622Z,974.86
2018-09-14T02:46:23.636Z,974.86
2018-09-14T02:47:23.615Z,974.84
2018-09-14T02:48:23.604Z,974.90
2018-09-14T02:49:23.600Z,974.90
2018-09-14T02:50:23.591Z,974.92
2018-09-14T02:51:23.586Z,974.91
2018-09-14T02:52:23.584Z,974.93
2018-09-14T02:53:23.568Z,974.90
2018-09-14T02:54:23.562Z,974.91
2018-09-14T02:55:23.574Z,974.94
2018-09-14T02:56:23.555Z,974.95
2018-09-14T02:57:23.549Z,974.95
2018-09-14T02:58:23.537Z,974.97
2018-09-14T02:59:23.541Z,974.97
2018-09-14T03:00:23.538Z,974.92
2018-09-14T03:01:23.527Z,974.94
2018-09-14T03:02:23.512Z,974.96
2018-09-14T03:03:23.515Z,974.92
2018-09-14T03:04:23.505Z,974.93
2018-09-14T03:05:23.502Z,974.92
2018-09-14T03:06:23.490Z,974.88
2018-09-14T03:07:23.489Z,974.89
2018-09-14T03:08:23.479Z,974.91
2018-09-14T03:09:23.468Z,974.89
2018-09-14T03:10:23.465Z,974.87
2018-09-14T03:11:23.454Z,974.87
2018-09-14T03:12:23.447Z,974.90
2018-09-14T03:13:23.442Z,974.86
2018-09-14T03:14:23.435Z,974.89
2018-09-14T03:15:23.429Z,974.91
2018-09-14T03:16:23.430Z,974.90
2018-09-14T03:17:23.422Z,974.90
2018-09-14T03:18:23.414Z,974.91
2018-09-14T03:19:23.404Z,974.91
2018-09-14T03:20:23.405Z,974.95
2018-09-14T03:21:23.395Z,974.93
2018-09-14T03:22:23.385Z,974.95
2018-09-14T03:23:23.385Z,974.91
2018-09-14T03:24:23.374Z,974.97
2018-09-14T03:25:23.371Z,974.95
2018-09-14T03:26:23.372Z,974.92
2018-09-14T03:27:23.356Z,974.92
2018-09-14T03:28:23.355Z,974.94
2018-09-14T03:29:23.342Z,974.92
2018-09-14T03:30:23.345Z,974.94
2018-09-14T03:31:23.332Z,974.93
2018-09-14T03:32:23.325Z,974.91
2018-09-14T03:33:23.319Z,974.92
2018-09-14T03:34:23.321Z,974.89
2018-09-14T03:35:23.308Z,974.87
2018-09-14T03:36:23.303Z,974.89
2018-09-14T03:37:23.294Z,974.90
2018-09-14T03:38:23.289Z,974.90
2018-09-14T03:39:23.368Z,974.92
2018-09-14T03:40:23.279Z,974.92
2018-09-14T03:41:23.266Z,974.94
2018-09-14T03:42:23.260Z,974.92
2018-09-14T03:43:23.254Z,974.90
2018-09-14T03:44:23.252Z,974.89
2018-09-14T03:45:23.244Z,974.87
2018-09-14T03:46:23.236Z,974.85
2018-09-14T03:47:23.236Z,974.86
2018-09-14T03:48:23.223Z,974.82
2018-09-14T03:49:23.217Z,974.88
2018-09-14T03:50:23.210Z,974.85
2018-09-14T03:51:23.208Z,974.85
2018-09-14T03:52:23.208Z,974.82
2018-09-14T03:53:23.196Z,974.90
2018-09-14T03:54:23.185Z,974.88
2018-09-14T03:55:23.186Z,974.87
2018-09-14T03:56:23.177Z,974.88
2018-09-14T03:57:23.301Z,974.89
2018-09-14T03:58:23.160Z,974.90
2018-09-14T03:59:23.153Z,974.87
2018-09-14T04:00:23.155Z,974.91
2018-09-14T04:01:23.143Z,974.91
2018-09-14T04:02:23.138Z,974.91
2018-09-14T04:03:23.133Z,974.88
2018-09-14T04:04:23.122Z,974.89
2018-09-14T04:05:23.115Z,974.88
2018-09-14T04:06:23.118Z,974.87
2018-09-14T04:07:23.105Z,974.88
2018-09-14T04:08:23.097Z,974.88
2018-09-14T04:09:23.097Z,974.88
2018-09-14T04:10:23.086Z,974.90
2018-09-14T04:11:23.090Z,974.93
2018-09-14T04:12:23.074Z,974.92
2018-09-14T04:13:23.064Z,974.92
2018-09-14T04:14:23.063Z,974.88
2018-09-14T04:15:23.056Z,974.90
2018-09-14T04:16:23.046Z,974.88
2018-09-14T04:17:23.085Z,974.91
2018-09-14T04:18:23.033Z,974.91
2018-09-14T04:19:23.028Z,974.93
2018-09-14T04:20:23.024Z,974.95
2018-09-14T04:21:23.017Z,974.94
2018-09-14T04:22:23.007Z,974.94
2018-09-14T04:23:23.061Z,974.94
2018-09-14T04:24:23.049Z,974.94
2018-09-14T04:25:22.994Z,974.95
2018-09-14T04:26:22.988Z,974.95
2018-09-14T04:27:22.981Z,974.94
2018-09-14T04:28:22.975Z,974.89
2018-09-14T04:29:22.965Z,974.93
2018-09-14T04:30:22.963Z,974.91
2018-09-14T04:31:23.022Z,974.88
2018-09-14T04:32:22.943Z,974.88
2018-09-14T04:33:22.938Z,974.85
2018-09-14T04:34:22.929Z,974.86
2018-09-14T04:35:22.931Z,974.90
2018-09-14T04:36:22.921Z,974.89
2018-09-14T04:37:22.915Z,974.91
2018-09-14T04:38:22.946Z,974.87
2018-09-14T04:39:22.921Z,974.88
2018-09-14T04:40:22.891Z,974.90
2018-09-14T04:41:22.891Z,974.89
2018-09-14T04:42:22.890Z,974.92
2018-09-14T04:43:22.877Z,974.90
2018-09-14T04:44:22.869Z,974.91
2018-09-14T04:45:22.863Z,974.94
2018-09-14T04:46:22.854Z,974.94
2018-09-14T04:47:22.851Z,974.97
2018-09-14T04:48:22.901Z,974.96
2018-09-14T04:49:22.834Z,974.96
2018-09-14T04:50:22.830Z,974.98
2018-09-14T04:51:22.908Z,974.97
2018-09-14T04:52:22.817Z,974.99
2018-09-14T04:53:22.814Z,975.02
2018-09-14T04:54:22.811Z,974.99
2018-09-14T04:55:22.809Z,975.03
2018-09-14T04:56:22.794Z,975.02
2018-09-14T04:57:22.865Z,975.05
2018-09-14T04:58:22.787Z,975.09
2018-09-14T04:59:22.772Z,975.11
2018-09-14T05:00:22.768Z,975.08
2018-09-14T05:01:22.771Z,975.11
2018-09-14T05:02:22.751Z,975.09
2018-09-14T05:03:22.774Z,975.09
2018-09-14T05:04:22.739Z,975.07
2018-09-14T05:05:22.733Z,975.12
2018-09-14T05:06:22.724Z,975.12
2018-09-14T05:07:22.762Z,975.13
2018-09-14T05:08:22.712Z,975.13
2018-09-14T05:09:22.712Z,975.10
2018-09-14T05:10:22.706Z,975.12
2018-09-14T05:11:22.697Z,975.09
2018-09-14T05:12:22.694Z,975.10
2018-09-14T05:13:22.683Z,975.14
2018-09-14T05:14:22.679Z,975.12
2018-09-14T05:15:22.670Z,975.13
2018-09-14T05:16:22.666Z,975.15
2018-09-14T05:17:22.663Z,975.17
2018-09-14T05:18:22.650Z,975.15
2018-09-14T05:19:22.644Z,975.17
2018-09-14T05:20:22.640Z,975.15
2018-09-14T05:21:22.636Z,975.16
2018-09-14T05:22:22.629Z,975.16
2018-09-14T05:23:22.621Z,975.14
2018-09-14T05:24:22.667Z,975.17
2018-09-14T05:25:22.607Z,975.18
2018-09-14T05:26:22.603Z,975.15
2018-09-14T05:27:22.593Z,975.14
2018-09-14T05:28:22.589Z,975.11
2018-09-14T05:29:22.581Z,975.17
2018-09-14T05:30:22.576Z,975.16
2018-09-14T05:31:22.572Z,975.16
2018-09-14T05:32:22.566Z,975.15
2018-09-14T05:33:22.561Z,975.16
2018-09-14T05:34:22.552Z,975.14
2018-09-14T05:35:22.544Z,975.15
2018-09-14T05:36:22.537Z,975.15
2018-09-14T05:37:22.531Z,975.17
2018-09-14T05:38:22.595Z,975.19
2018-09-14T05:39:22.525Z,975.21
2018-09-14T05:40:22.510Z,975.21
2018-09-14T05:41:22.504Z,975.22
2018-09-14T05:42:22.505Z,975.22
2018-09-14T05:43:22.496Z,975.26
2018-09-14T05:44:22.489Z,975.22
2018-09-14T05:45:22.484Z,975.27
2018-09-14T05:46:22.479Z,975.26
2018-09-14T05:47:22.470Z,975.24
2018-09-14T05:48:22.461Z,975.27
2018-09-14T05:49:22.454Z,975.27
2018-09-14T05:50:22.451Z,975.28
2018-09-14T05:51:22.444Z,975.29
2018-09-14T05:52:22.446Z,975.31
2018-09-14T05:53:22.435Z,975.33
2018-09-14T05:54:22.427Z,975.35
2018-09-14T05:55:22.417Z,975.34
2018-09-14T05:56:22.412Z,975.36
2018-09-14T05:57:22.412Z,975.32
2018-09-14T05:58:22.405Z,975.38
2018-09-14T05:59:22.396Z,975.36
2018-09-14T06:00:22.387Z,975.33
2018-09-14T06:01:22.380Z,975.33
2018-09-14T06:02:22.379Z,975.35
2018-09-14T06:03:22.368Z,975.31
2018-09-14T06:04:22.368Z,975.36
2018-09-14T06:05:22.362Z,975.35
2018-09-14T06:06:22.349Z,975.40
2018-09-14T06:07:22.343Z,975.38
2018-09-14T06:08:22.338Z,975.41
2018-09-14T06:09:22.335Z,975.39
2018-09-14T06:10:22.333Z,975.44
2018-09-14T06:11:22.323Z,975.42
2018-09-14T06:12:22.316Z,975.43
2018-09-14T06:13:22.311Z,975.44
2018-09-14T06:14:22.303Z,975.41
2018-09-14T06:15:22.299Z,975.42
2018-09-14T06:16:22.298Z,975.42
2018-09-14T06:17:22.287Z,975.42
2018-09-14T06:18:22.281Z,975.43
2018-09-14T06:19:22.273Z,975.45
2018-09-14T06:20:22.267Z,975.46
2018-09-14T06:21:22.263Z,975.49
2018-09-14T06:22:22.261Z,975.49
2018-09-14T06:23:22.251Z,975.52
2018-09-14T06:24:22.248Z,975.53
2018-09-14T06:25:22.244Z,975.57
2018-09-14T06:26:22.231Z,975.61
2018-09-14T06:27:22.231Z,975.57
2018-09-14T06:28:22.221Z,975.59
2018-09-14T06:29:22.214Z,975.58
2018-09-14T06:30:22.213Z,975.59
2018-09-14T06:31:22.207Z,975.62
2018-09-14T06:32:22.204Z,975.60
2018-09-14T06:33:22.197Z,975.61
2018-09-14T06:34:22.191Z,975.60
2018-09-14T06:35:22.186Z,975.61
2018-09-14T06:36:22.175Z,975.61
2018-09-14T06:37:22.171Z,975.63
2018-09-14T06:38:22.243Z,975.61
2018-09-14T06:39:22.165Z,975.62
2018-09-14T06:40:22.158Z,975.64
2018-09-14T06:41:22.149Z,975.61
2018-09-14T06:42:22.144Z,975.62
2018-09-14T06:43:22.139Z,975.60
2018-09-14T06:44:22.130Z,975.62
2018-09-14T06:45:22.128Z,975.64
2018-09-14T06:46:22.122Z,975.61
2018-09-14T06:47:22.113Z,975.64
2018-09-14T06:48:22.112Z,975.63
2018-09-14T06:49:22.105Z,975.66
2018-09-14T06:50:22.098Z,975.68
2018-09-14T06:51:22.095Z,975.65
2018-09-14T06:52:22.091Z,975.67
2018-09-14T06:53:22.141Z,975.68
2018-09-14T06:54:22.072Z,975.70
2018-09-14T06:55:22.070Z,975.68
2018-09-14T06:56:22.061Z,975.69
2018-09-14T06:57:22.054Z,975.73
2018-09-14T06:58:22.049Z,975.72
2018-09-14T06:59:22.043Z,975.73
2018-09-14T07:00:22.273Z,975.72
2018-09-14T07:01:22.030Z,975.77
2018-09-14T07:02:22.026Z,975.71
2018-09-14T07:03:22.026Z,975.74
2018-09-14T07:04:22.017Z,975.72
2018-09-14T07:05:22.009Z,975.74
2018-09-14T07:06:22.030Z,975.71
2018-09-14T07:07:21.996Z,975.69
2018-09-14T07:08:21.993Z,975.70
2018-09-14T07:09:21.986Z,975.70
2018-09-14T07:10:21.983Z,975.68
2018-09-14T07:11:21.981Z,975.69
2018-09-14T07:12:21.974Z,975.68
2018-09-14T07:13:22.115Z,975.69
2018-09-14T07:14:21.954Z,975.72
2018-09-14T07:15:21.959Z,975.67
2018-09-14T07:16:21.944Z,975.67
2018-09-14T07:17:21.941Z,975.71
2018-09-14T07:18:21.929Z,975.71
2018-09-14T07:19:21.925Z,975.73
2018-09-14T07:20:21.919Z,975.75
2018-09-14T07:21:21.911Z,975.73
2018-09-14T07:22:22.060Z,975.74
2018-09-14T07:23:21.902Z,975.73
2018-09-14T07:24:21.950Z,975.76
2018-09-14T07:25:21.923Z,975.79
2018-09-14T07:26:21.887Z,975.76
2018-09-14T07:27:21.878Z,975.76
2018-09-14T07:28:21.876Z,975.82
2018-09-14T07:29:21.889Z,975.81
2018-09-14T07:30:21.856Z,975.81
2018-09-14T07:31:21.883Z,975.80
2018-09-14T07:32:21.870Z,975.81
2018-09-14T07:33:21.841Z,975.83
2018-09-14T07:34:21.840Z,975.82
2018-09-14T07:35:21.836Z,975.85
2018-09-14T07:36:21.885Z,975.82
2018-09-14T07:37:21.818Z,975.85
2018-09-14T07:38:21.817Z,975.91
2018-09-14T07:39:21.804Z,975.93
2018-09-14T07:40:21.805Z,975.91
2018-09-14T07:41:21.793Z,975.93
2018-09-14T07:42:21.825Z,975.92
2018-09-14T07:43:21.786Z,975.96
2018-09-14T07:44:21.777Z,975.93
2018-09-14T07:45:21.772Z,975.96
2018-09-14T07:46:21.767Z,975.97
2018-09-14T07:47:21.760Z,975.95
2018-09-14T07:48:21.863Z,975.99
2018-09-14T07:49:21.752Z,975.92
2018-09-14T07:50:21.756Z,975.98
2018-09-14T07:51:21.744Z,975.94
2018-09-14T07:52:21.739Z,975.95
2018-09-14T07:53:21.732Z,975.91
2018-09-14T07:54:21.731Z,975.96
2018-09-14T07:55:21.774Z,975.98
2018-09-14T07:56:21.714Z,975.94
2018-09-14T07:57:21.708Z,975.96
2018-09-14T07:58:21.701Z,975.96
2018-09-14T07:59:21.698Z,975.97
2018-09-14T08:00:21.697Z,975.97
2018-09-14T08:01:21.822Z,975.97
2018-09-14T08:02:21.685Z,975.97
2018-09-14T08:03:21.681Z,975.99
2018-09-14T08:04:21.675Z,975.95
2018-09-14T08:05:21.668Z,975.99
2018-09-14T08:06:21.660Z,976.00
2018-09-14T08:07:21.656Z,975.98
2018-09-14T08:08:21.653Z,975.99
2018-09-14T08:09:21.646Z,975.99
2018-09-14T08:10:21.644Z,976.01
2018-09-14T08:11:21.635Z,976.01
2018-09-14T08:12:21.629Z,975.99
2018-09-14T08:13:21.741Z,975.96
2018-09-14T08:14:21.622Z,975.96
2018-09-14T08:15:21.620Z,976.00
2018-09-14T08:16:21.616Z,976.00
2018-09-14T08:17:21.604Z,975.97
2018-09-14T08:18:21.601Z,975.95
2018-09-14T08:19:21.596Z,975.98
2018-09-14T08:20:21.595Z,975.97
2018-09-14T08:21:21.623Z,975.94
2018-09-14T08:22:21.588Z,975.98
2018-09-14T08:23:21.584Z,976.00
2018-09-14T08:24:21.576Z,975.97
2018-09-14T08:25:21.669Z,975.98
2018-09-14T08:26:21.565Z,976.03
2018-09-14T08:27:21.562Z,976.02
2018-09-14T08:28:21.556Z,976.00
2018-09-14T08:29:21.558Z,976.06
2018-09-14T08:30:21.547Z,976.09
2018-09-14T08:31:21.543Z,976.09
2018-09-14T08:32:21.551Z,976.10
2018-09-14T08:33:21.535Z,976.10
2018-09-14T08:34:21.531Z,976.15
2018-09-14T08:35:21.525Z,976.19
2018-09-14T08:36:21.532Z,976.14
2018-09-14T08:37:21.516Z,976.15
2018-09-14T08:38:21.511Z,976.19
2018-09-14T08:39:21.514Z,976.14
2018-09-14T08:40:21.503Z,976.19
2018-09-14T08:41:21.498Z,976.17
2018-09-14T08:42:21.493Z,976.18
2018-09-14T08:43:21.492Z,976.19
2018-09-14T08:44:21.486Z,976.20
2018-09-14T08:45:21.484Z,976.14
2018-09-14T08:46:21.477Z,976.20
2018-09-14T08:47:21.477Z,976.19
2018-09-14T08:48:21.469Z,976.21
2018-09-14T08:49:21.460Z,976.15
2018-09-14T08:50:21.455Z,976.21
2018-09-14T08:51:21.457Z,976.23
2018-09-14T08:52:21.453Z,976.23
2018-09-14T08:53:21.442Z,976.19
2018-09-14T08:54:21.442Z,976.20
2018-09-14T08:55:21.439Z,976.21
2018-09-14T08:56:21.431Z,976.23
2018-09-14T08:57:21.429Z,976.22
2018-09-14T08:58:21.419Z,976.23
2018-09-14T08:59:21.470Z,976.25
2018-09-14T09:00:21.415Z,976.24
2018-09-14T09:01:21.413Z,976.18
2018-09-14T09:02:21.408Z,976.23
2018-09-14T09:03:21.399Z,976.18
2018-09-14T09:04:21.396Z,976.22
2018-09-14T09:05:21.396Z,976.24
2018-09-14T09:06:21.388Z,976.18
2018-09-14T09:07:21.474Z,976.23
2018-09-14T09:08:21.385Z,976.20
2018-09-14T09:09:21.380Z,976.25
2018-09-14T09:10:21.371Z,976.17
2018-09-14T09:11:21.429Z,976.18
2018-09-14T09:12:21.367Z,976.17
2018-09-14T09:13:21.358Z,976.17
2018-09-14T09:14:21.354Z,976.20
2018-09-14T09:15:21.357Z,976.21
2018-09-14T09:16:21.354Z,976.17
2018-09-14T09:17:21.346Z,976.20
2018-09-14T09:18:21.341Z,976.22
2018-09-14T09:19:21.388Z,976.17
2018-09-14T09:20:21.337Z,976.21
2018-09-14T09:21:21.330Z,976.17
2018-09-14T09:22:21.324Z,976.15
2018-09-14T09:23:21.373Z,976.20
2018-09-14T09:24:21.316Z,976.22
2018-09-14T09:25:21.318Z,976.18
2018-09-14T09:26:21.367Z,976.20
2018-09-14T09:27:21.304Z,976.23
2018-09-14T09:28:21.302Z,976.20
2018-09-14T09:29:21.319Z,976.28
2018-09-14T09:30:21.293Z,976.20
2018-09-14T09:31:21.286Z,976.19
2018-09-14T09:32:21.285Z,976.17
2018-09-14T09:33:21.285Z,976.22
2018-09-14T09:34:21.279Z,976.18
2018-09-14T09:35:21.277Z,976.16
2018-09-14T09:36:21.270Z,976.16
2018-09-14T09:37:21.268Z,976.17
2018-09-14T09:38:21.279Z,976.15
2018-09-14T09:39:21.261Z,976.15
2018-09-14T09:40:21.256Z,976.16
2018-09-14T09:41:21.249Z,976.16
2018-09-14T09:42:21.244Z,976.16
2018-09-14T09:43:21.364Z,976.19
2018-09-14T09:44:21.243Z,976.15
2018-09-14T09:45:21.232Z,976.19
2018-09-14T09:46:21.231Z,976.25
2018-09-14T09:47:21.235Z,976.17
2018-09-14T09:48:21.231Z,976.20
2018-09-14T09:49:21.220Z,976.20
2018-09-14T09:50:21.213Z,976.23
2018-09-14T09:51:21.240Z,976.20
2018-09-14T09:52:21.207Z,976.20
2018-09-14T09:53:21.203Z,976.18
2018-09-14T09:54:21.201Z,976.16
2018-09-14T09:55:21.195Z,976.14
2018-09-14T09:56:21.187Z,976.13
2018-09-14T09:57:21.189Z,976.13
2018-09-14T09:58:21.191Z,976.13
2018-09-14T09:59:21.180Z,976.17
2018-09-14T10:00:21.177Z,976.15
2018-09-14T10:01:21.176Z,976.15
2018-09-14T10:02:21.165Z,976.13
2018-09-14T10:03:21.164Z,976.16
2018-09-14T10:04:21.156Z,976.12
2018-09-14T10:05:21.158Z,976.12
2018-09-14T10:06:21.148Z,976.12
2018-09-14T10:07:21.153Z,976.15
2018-09-14T10:08:21.143Z,976.16
2018-09-14T10:09:21.139Z,976.18
2018-09-14T10:10:21.138Z,976.17
2018-09-14T10:11:21.137Z,976.19
2018-09-14T10:12:21.133Z,976.12
2018-09-14T10:13:21.125Z,976.14
2018-09-14T10:14:21.123Z,976.12
2018-09-14T10:15:21.122Z,976.11
2018-09-14T10:16:21.118Z,976.09
2018-09-14T10:17:21.111Z,976.10
2018-09-14T10:18:21.107Z,976.09
2018-09-14T10:19:21.107Z,976.05
2018-09-14T10:20:21.107Z,976.06
2018-09-14T10:21:21.161Z,976.04
2018-09-14T10:22:21.094Z,976.02
2018-09-14T10:23:21.094Z,976.07
2018-09-14T10:24:21.087Z,976.09
2018-09-14T10:25:21.088Z,976.06
2018-09-14T10:26:21.086Z,976.00
2018-09-14T10:27:21.078Z,976.02
2018-09-14T10:28:21.073Z,975.99
2018-09-14T10:29:21.072Z,976.05
2018-09-14T10:30:21.074Z,976.07
2018-09-14T10:31:21.066Z,976.04
2018-09-14T10:32:21.063Z,976.02
2018-09-14T10:33:21.060Z,975.99
2018-09-14T10:34:21.057Z,975.94
2018-09-14T10:35:21.056Z,975.97
2018-09-14T10:36:21.056Z,975.97
2018-09-14T10:37:21.048Z,975.88
2018-09-14T10:38:21.046Z,975.93
2018-09-14T10:39:21.050Z,975.93
2018-09-14T10:40:21.084Z,975.93
2018-09-14T10:41:21.037Z,975.93
2018-09-14T10:42:21.038Z,975.92
2018-09-14T10:43:21.039Z,975.97
2018-09-14T10:44:21.034Z,975.91
2018-09-14T10:45:21.115Z,975.93
2018-09-14T10:46:21.029Z,975.94
2018-09-14T10:47:21.024Z,975.92
2018-09-14T10:48:21.021Z,975.88
2018-09-14T10:49:21.022Z,975.90
2018-09-14T10:50:21.020Z,975.93
2018-09-14T10:51:21.012Z,975.89
2018-09-14T10:52:21.031Z,975.90
2018-09-14T10:53:21.007Z,975.92
2018-09-14T10:54:21.011Z,975.91
2018-09-14T10:55:21.019Z,975.89
2018-09-14T10:56:21.000Z,975.92
2018-09-14T10:57:20.998Z,975.91
2018-09-14T10:58:20.996Z,975.92
2018-09-14T10:59:20.991Z,975.89
2018-09-14T11:00:20.995Z,975.90
2018-09-14T11:01:20.983Z,975.89
2018-09-14T11:02:20.983Z,975.89
2018-09-14T11:03:20.985Z,975.92
2018-09-14T11:04:20.988Z,975.86
2018-09-14T11:05:20.976Z,975.89
2018-09-14T11:06:20.971Z,975.90
2018-09-14T11:07:20.972Z,975.91
2018-09-14T11:08:20.971Z,975.90
2018-09-14T11:09:20.962Z,975.87
2018-09-14T11:10:20.958Z,975.86
2018-09-14T11:11:20.957Z,975.86
2018-09-14T11:12:20.959Z,975.85
2018-09-14T11:13:20.949Z,975.82
2018-09-14T11:14:20.953Z,975.79
2018-09-14T11:15:20.948Z,975.83
2018-09-14T11:16:20.948Z,975.83
2018-09-14T11:17:20.941Z,975.84
2018-09-14T11:18:20.936Z,975.83
2018-09-14T11:19:20.953Z,975.84
2018-09-14T11:20:20.937Z,975.84
2018-09-14T11:21:20.931Z,975.81
2018-09-14T11:22:20.926Z,975.78
2018-09-14T11:23:20.929Z,975.79
2018-09-14T11:24:20.926Z,975.81
2018-09-14T11:25:20.977Z,975.80
2018-09-14T11:26:20.914Z,975.80
2018-09-14T11:27:20.919Z,975.79
2018-09-14T11:28:20.910Z,975.78
2018-09-14T11:29:20.906Z,975.77
2018-09-14T11:30:20.912Z,975.73
2018-09-14T11:31:20.912Z,975.77
2018-09-14T11:32:20.926Z,975.81
2018-09-14T11:33:20.899Z,975.77
2018-09-14T11:34:20.912Z,975.73
2018-09-14T11:35:20.895Z,975.75
2018-09-14T11:36:20.891Z,975.70
2018-09-14T11:37:20.908Z,975.72
2018-09-14T11:38:20.990Z,975.69
2018-09-14T11:39:20.888Z,975.71
2018-09-14T11:40:20.886Z,975.69
2018-09-14T11:41:20.885Z,975.68
2018-09-14T11:42:20.878Z,975.68
2018-09-14T11:43:20.879Z,975.68
2018-09-14T11:44:20.895Z,975.63
2018-09-14T11:45:20.955Z,975.62
2018-09-14T11:46:20.868Z,975.63
2018-09-14T11:47:20.874Z,975.63
2018-09-14T11:48:20.862Z,975.63
2018-09-14T11:49:20.860Z,975.64
2018-09-14T11:50:20.860Z,975.61
2018-09-14T11:51:20.855Z,975.59
2018-09-14T11:52:20.852Z,975.59
2018-09-14T11:53:20.850Z,975.57
2018-09-14T11:54:21.020Z,975.53
2018-09-14T11:55:20.848Z,975.52
2018-09-14T11:56:20.849Z,975.54
2018-09-14T11:57:20.845Z,975.54
2018-09-14T11:58:20.938Z,975.50
2018-09-14T11:59:20.843Z,975.48
2018-09-14T12:00:20.841Z,975.50
2018-09-14T12:01:20.858Z,975.50
2018-09-14T12:02:20.832Z,975.50
2018-09-14T12:03:20.831Z,975.49
2018-09-14T12:04:20.884Z,975.48
2018-09-14T12:05:20.824Z,975.47
2018-09-14T12:06:20.825Z,975.45
2018-09-14T12:07:20.818Z,975.48
2018-09-14T12:08:20.828Z,975.45
2018-09-14T12:09:20.821Z,975.48
2018-09-14T12:10:20.811Z,975.42
2018-09-14T12:11:20.813Z,975.45
2018-09-14T12:12:20.814Z,975.43
2018-09-14T12:13:20.812Z,975.48
2018-09-14T12:14:20.804Z,975.47
2018-09-14T12:15:20.808Z,975.47
2018-09-14T12:16:20.806Z,975.44
2018-09-14T12:17:20.797Z,975.43
2018-09-14T12:18:20.802Z,975.42
2018-09-14T12:19:20.794Z,975.36
2018-09-14T12:20:20.793Z,975.41
2018-09-14T12:21:20.793Z,975.38
2018-09-14T12:22:20.816Z,975.38
2018-09-14T12:23:20.789Z,975.37
2018-09-14T12:24:20.790Z,975.37
2018-09-14T12:25:20.783Z,975.38
2018-09-14T12:26:20.786Z,975.38
2018-09-14T12:27:20.786Z,975.35
2018-09-14T12:28:20.813Z,975.41